createdAt,value
2018-11-26T00:00:37.200Z,85.90
2018-11-26T00:02:41.887Z,86.06
2018-11-26T00:04:46.728Z,85.92
2018-11-26T00:06:51.559Z,86.11
2018-11-26T00:08:56.544Z,85.70
2018-11-26T00:11:43.406Z,86.03
2018-11-26T00:13:48.364Z,85.72
2018-11-26T00:15:53.386Z,85.99
2018-11-26T00:17:58.372Z,86.13
2018-11-26T00:20:03.110Z,86.28
2018-11-26T00:22:07.866Z,85.81
2018-11-26T00:24:12.750Z,85.94
2018-11-26T00:26:17.604Z,85.93
2018-11-26T00:28:22.432Z,85.88
2018-11-26T00:30:27.339Z,85.80
2018-11-26T00:32:32.310Z,85.77
2018-11-26T00:34:37.120Z,85.95
2018-11-26T00:36:42.070Z,85.82
2018-11-26T00:38:46.897Z,85.54
2018-11-26T00:40:51.820Z,85.54
2018-11-26T00:42:56.530Z,85.56
2018-11-26T00:45:01.471Z,85.76
2018-11-26T00:47:06.296Z,85.51
2018-11-26T00:49:11.088Z,85.54
2018-11-26T00:51:15.979Z,85.40
2018-11-26T00:53:20.808Z,85.54
2018-11-26T00:55:25.755Z,85.46
2018-11-26T00:57:30.586Z,85.10
2018-11-26T00:59:35.525Z,85.12
2018-11-26T01:01:40.274Z,84.87
2018-11-26T01:03:45.655Z,85.19
2018-11-26T01:05:50.419Z,84.91
2018-11-26T01:07:55.511Z,85.13
2018-11-26T01:10:00.557Z,84.98
2018-11-26T01:12:05.563Z,85.09
2018-11-26T01:14:10.446Z,85.07
2018-11-26T01:16:15.462Z,84.77
2018-11-26T01:18:20.494Z,85.17
2018-11-26T01:20:25.496Z,84.84
2018-11-26T01:22:30.236Z,84.93
2018-11-26T01:24:35.039Z,85.16
2018-11-26T01:26:40.011Z,84.86
2018-11-26T01:28:44.821Z,84.86
2018-11-26T01:30:49.577Z,85.07
2018-11-26T01:32:54.488Z,84.88
2018-11-26T01:34:59.333Z,85.16
2018-11-26T01:37:04.174Z,84.73
2018-11-26T01:39:10.112Z,85.00
2018-11-26T01:41:15.090Z,84.83
2018-11-26T01:43:20.516Z,85.05
2018-11-26T01:45:25.532Z,84.75
2018-11-26T01:47:30.387Z,84.58
2018-11-26T01:49:35.243Z,84.88
2018-11-26T01:51:39.965Z,84.50
2018-11-26T01:53:44.796Z,84.86
2018-11-26T01:55:49.475Z,84.81
2018-11-26T01:57:54.336Z,84.68
2018-11-26T01:59:59.167Z,84.68
2018-11-26T02:02:03.993Z,84.81
2018-11-26T02:04:08.680Z,84.70
2018-11-26T02:06:13.484Z,84.71
2018-11-26T02:08:18.281Z,84.91
2018-11-26T02:10:23.078Z,84.82
2018-11-26T02:12:27.793Z,84.80
2018-11-26T02:14:32.690Z,84.79
2018-11-26T02:16:37.548Z,84.78
2018-11-26T02:18:42.348Z,85.11
2018-11-26T02:20:47.107Z,85.16
2018-11-26T02:22:51.996Z,84.74
2018-11-26T02:24:56.911Z,85.04
2018-11-26T02:27:01.694Z,84.93
2018-11-26T02:29:07.080Z,85.11
2018-11-26T02:31:12.027Z,85.10
2018-11-26T02:33:16.918Z,85.09
2018-11-26T02:35:21.769Z,84.76
2018-11-26T02:37:26.871Z,85.01
2018-11-26T02:39:31.597Z,84.86
2018-11-26T02:41:36.454Z,84.81
2018-11-26T02:43:41.359Z,84.73
2018-11-26T02:45:46.220Z,84.67
2018-11-26T02:47:51.028Z,84.66
2018-11-26T02:49:55.687Z,85.02
2018-11-26T02:52:00.714Z,84.95
2018-11-26T02:54:05.851Z,84.68
2018-11-26T02:56:10.576Z,84.82
2018-11-26T02:58:15.255Z,84.98
2018-11-26T03:00:20.195Z,84.98
2018-11-26T03:02:25.098Z,84.64
2018-11-26T03:04:29.884Z,84.88
2018-11-26T03:06:34.625Z,84.62
2018-11-26T03:08:39.431Z,84.50
2018-11-26T03:10:44.301Z,84.84
2018-11-26T03:12:49.169Z,84.87
2018-11-26T03:14:53.932Z,84.52
2018-11-26T03:16:58.650Z,85.05
2018-11-26T03:19:03.445Z,84.81
2018-11-26T03:21:08.366Z,84.69
2018-11-26T03:23:13.217Z,84.59
2018-11-26T03:25:18.123Z,84.52
2018-11-26T03:27:23.062Z,84.72
2018-11-26T03:29:27.945Z,84.86
2018-11-26T03:31:32.879Z,84.52
2018-11-26T03:33:38.063Z,84.41
2018-11-26T03:35:42.922Z,84.71
2018-11-26T03:37:47.729Z,84.57
2018-11-26T03:39:52.492Z,84.34
2018-11-26T03:41:57.419Z,84.14
2018-11-26T03:44:02.505Z,84.29
2018-11-26T03:46:07.571Z,84.31
2018-11-26T03:48:12.444Z,84.41
2018-11-26T03:50:17.345Z,84.39
2018-11-26T03:52:22.158Z,84.23
2018-11-26T03:54:27.166Z,84.14
2018-11-26T03:56:31.963Z,84.11
2018-11-26T03:58:36.859Z,83.99
2018-11-26T04:00:41.754Z,84.12
2018-11-26T04:02:46.803Z,83.78
2018-11-26T04:04:51.711Z,84.04
2018-11-26T04:06:56.627Z,84.02
2018-11-26T04:09:01.578Z,83.92
2018-11-26T04:11:07.032Z,83.79
2018-11-26T04:13:11.986Z,83.87
2018-11-26T04:15:17.018Z,84.16
2018-11-26T04:17:21.950Z,84.13
2018-11-26T04:19:26.801Z,84.38
2018-11-26T04:21:31.612Z,84.07
2018-11-26T04:23:36.503Z,84.26
2018-11-26T04:25:41.958Z,84.41
2018-11-26T04:27:47.037Z,84.49
2018-11-26T04:29:51.927Z,84.20
2018-11-26T04:31:56.762Z,84.56
2018-11-26T04:34:01.584Z,84.54
2018-11-26T04:36:06.486Z,84.18
2018-11-26T04:38:11.314Z,84.50
2018-11-26T04:40:16.110Z,84.38
2018-11-26T04:42:20.935Z,84.18
2018-11-26T04:44:25.672Z,84.26
2018-11-26T04:46:30.710Z,84.42
2018-11-26T04:48:35.382Z,84.55
2018-11-26T04:50:40.138Z,84.29
2018-11-26T04:52:44.907Z,84.34
2018-11-26T04:54:49.782Z,84.57
2018-11-26T04:56:54.748Z,84.48
2018-11-26T04:58:59.558Z,84.53
2018-11-26T05:01:04.412Z,84.78
2018-11-26T05:03:09.163Z,84.93
2018-11-26T05:05:14.653Z,84.56
2018-11-26T05:07:19.451Z,84.98
2018-11-26T05:09:24.299Z,85.10
2018-11-26T05:11:29.195Z,84.77
2018-11-26T05:13:34.016Z,85.05
2018-11-26T05:15:38.878Z,85.12
2018-11-26T05:17:43.850Z,85.29
2018-11-26T05:19:48.714Z,85.31
2018-11-26T05:21:53.683Z,85.37
2018-11-26T05:23:58.554Z,85.27
2018-11-26T05:26:03.619Z,85.12
2018-11-26T05:28:08.929Z,85.54
2018-11-26T05:30:14.521Z,85.34
2018-11-26T05:32:19.686Z,85.39
2018-11-26T05:34:25.036Z,85.24
2018-11-26T05:36:30.458Z,85.34
2018-11-26T05:38:35.593Z,85.44
2018-11-26T05:40:40.508Z,85.17
2018-11-26T05:42:45.581Z,85.29
2018-11-26T05:44:50.391Z,85.46
2018-11-26T05:46:55.622Z,85.51
2018-11-26T05:49:00.566Z,85.44
2018-11-26T05:51:05.427Z,85.29
2018-11-26T05:53:10.356Z,85.47
2018-11-26T05:55:17.112Z,85.51
2018-11-26T05:57:22.203Z,85.69
2018-11-26T05:59:28.216Z,85.68
2018-11-26T06:01:33.277Z,85.73
2018-11-26T06:03:38.219Z,85.34
2018-11-26T06:05:43.132Z,85.56
2018-11-26T06:07:47.970Z,85.17
2018-11-26T06:09:59.098Z,85.58
2018-11-26T06:12:04.373Z,85.34
2018-11-26T06:14:10.558Z,85.36
2018-11-26T06:16:22.161Z,85.26
2018-11-26T06:18:26.898Z,85.20
2018-11-26T06:20:31.692Z,85.11
2018-11-26T06:22:36.590Z,84.98
2018-11-26T06:24:41.467Z,84.90
2018-11-26T06:26:46.348Z,84.72
2018-11-26T06:28:51.474Z,84.55
2018-11-26T06:30:56.500Z,84.73
2018-11-26T06:33:01.387Z,84.40
2018-11-26T06:35:19.100Z,84.29
2018-11-26T06:37:24.237Z,84.23
2018-11-26T06:39:29.393Z,84.26
2018-11-26T06:41:34.299Z,84.33
2018-11-26T06:43:39.215Z,84.50
2018-11-26T06:45:44.027Z,84.38
2018-11-26T06:47:48.890Z,84.09
2018-11-26T06:49:54.240Z,84.07
2018-11-26T06:51:59.454Z,83.90
2018-11-26T06:54:04.331Z,83.85
2018-11-26T06:56:11.514Z,84.10
2018-11-26T06:58:19.766Z,83.74
2018-11-26T07:00:30.327Z,83.32
2018-11-26T07:02:35.448Z,83.20
2018-11-26T07:04:40.653Z,83.55
2018-11-26T07:06:45.933Z,83.46
2018-11-26T07:08:51.278Z,83.22
2018-11-26T07:10:56.957Z,83.44
2018-11-26T07:13:03.406Z,82.95
2018-11-26T07:15:16.426Z,83.13
2018-11-26T07:17:21.511Z,83.10
2018-11-26T07:19:26.639Z,82.96
2018-11-26T07:21:31.630Z,82.86
2018-11-26T07:23:36.624Z,82.74
2018-11-26T07:25:41.429Z,82.81
2018-11-26T07:27:49.150Z,82.80
2018-11-26T07:29:54.398Z,82.73
2018-11-26T07:31:59.601Z,82.91
2018-11-26T07:34:04.688Z,82.57
2018-11-26T07:36:11.413Z,82.48
2018-11-26T07:38:14.825Z,82.51
2018-11-26T07:40:22.217Z,82.79
2018-11-26T07:42:27.531Z,82.75
2018-11-26T07:44:32.598Z,82.55
2018-11-26T07:46:37.579Z,82.39
2018-11-26T07:48:42.530Z,82.45
2018-11-26T07:50:47.566Z,82.33
2018-11-26T07:52:52.684Z,82.33
2018-11-26T07:54:57.722Z,82.07
2018-11-26T07:57:02.765Z,81.87
2018-11-26T07:59:08.082Z,81.99
2018-11-26T08:01:13.194Z,82.01
2018-11-26T08:03:17.986Z,81.71
2018-11-26T08:05:24.519Z,81.15
2018-11-26T08:07:29.650Z,81.25
2018-11-26T08:09:35.153Z,81.43
2018-11-26T08:11:40.318Z,81.17
2018-11-26T08:13:45.718Z,81.45
2018-11-26T08:15:50.792Z,81.50
2018-11-26T08:17:56.560Z,81.43
2018-11-26T08:20:01.890Z,81.38
2018-11-26T08:22:07.079Z,80.91
2018-11-26T08:24:11.999Z,81.30
2018-11-26T08:26:16.751Z,81.26
2018-11-26T08:28:21.812Z,80.76
2018-11-26T08:30:28.269Z,80.85
2018-11-26T08:32:34.120Z,80.87
2018-11-26T08:34:39.129Z,80.61
2018-11-26T08:36:44.512Z,80.57
2018-11-26T08:38:54.503Z,80.89
2018-11-26T08:41:04.590Z,80.67
2018-11-26T08:43:14.889Z,80.82
2018-11-26T08:45:25.220Z,81.02
2018-11-26T08:47:34.492Z,80.65
2018-11-26T08:49:40.337Z,80.26
2018-11-26T08:51:45.710Z,80.78
2018-11-26T08:53:51.019Z,80.34
2018-11-26T08:55:56.211Z,80.50
2018-11-26T08:58:02.374Z,80.36
2018-11-26T09:00:09.671Z,80.41
2018-11-26T09:02:18.821Z,79.97
2018-11-26T09:04:27.907Z,80.27
2018-11-26T09:06:34.588Z,79.98
2018-11-26T09:08:39.836Z,80.21
2018-11-26T09:10:45.642Z,79.96
2018-11-26T09:12:50.862Z,79.30
2018-11-26T09:14:56.371Z,79.58
2018-11-26T09:17:01.257Z,78.90
2018-11-26T09:19:07.719Z,79.06
2018-11-26T09:21:12.862Z,78.67
2018-11-26T09:23:21.138Z,78.17
2018-11-26T09:25:26.320Z,77.76
2018-11-26T09:27:31.604Z,77.37
2018-11-26T09:29:36.800Z,77.92
2018-11-26T09:31:42.612Z,77.41
2018-11-26T09:33:47.382Z,77.08
2018-11-26T09:35:52.582Z,76.72
2018-11-26T09:37:57.997Z,76.65
2018-11-26T09:40:03.335Z,76.58
2018-11-26T09:42:08.410Z,75.94
2018-11-26T09:44:14.380Z,76.16
2018-11-26T09:46:20.124Z,76.28
2018-11-26T09:48:25.275Z,75.69
2018-11-26T09:50:30.508Z,75.09
2018-11-26T09:52:35.522Z,74.76
2018-11-26T09:54:40.791Z,75.37
2018-11-26T09:56:45.732Z,75.84
2018-11-26T09:58:50.845Z,75.70
2018-11-26T10:00:56.109Z,75.23
2018-11-26T10:03:01.365Z,74.64
2018-11-26T10:05:10.659Z,74.72
2018-11-26T10:07:15.773Z,74.41
2018-11-26T10:09:20.846Z,74.24
2018-11-26T10:11:26.158Z,74.41
2018-11-26T10:13:31.274Z,74.30
2018-11-26T10:15:36.393Z,73.95
2018-11-26T10:17:41.372Z,74.50
2018-11-26T10:19:46.293Z,74.15
2018-11-26T10:21:51.585Z,74.10
2018-11-26T10:23:56.902Z,74.40
2018-11-26T10:26:02.245Z,73.94
2018-11-26T10:28:07.217Z,73.34
2018-11-26T10:30:16.705Z,73.69
2018-11-26T10:32:21.745Z,73.53
2018-11-26T10:34:26.722Z,73.84
2018-11-26T10:36:31.735Z,73.63
2018-11-26T10:38:36.900Z,73.76
2018-11-26T10:40:41.891Z,74.07
2018-11-26T10:42:46.997Z,73.84
2018-11-26T10:44:52.198Z,73.73
2018-11-26T10:46:59.216Z,73.62
2018-11-26T10:49:05.263Z,73.74
2018-11-26T10:51:10.155Z,73.32
2018-11-26T10:53:15.271Z,73.80
2018-11-26T10:55:36.327Z,73.69
2018-11-26T10:57:41.531Z,73.23
2018-11-26T10:59:46.848Z,73.83
2018-11-26T11:01:56.983Z,74.11
2018-11-26T11:04:02.279Z,73.86
2018-11-26T11:06:07.957Z,73.74
2018-11-26T11:08:13.128Z,73.71
2018-11-26T11:10:22.058Z,73.66
2018-11-26T11:12:31.969Z,73.18
2018-11-26T11:14:48.395Z,73.50
2018-11-26T11:16:58.553Z,73.83
2018-11-26T11:19:03.942Z,74.05
2018-11-26T11:21:10.663Z,73.46
2018-11-26T11:23:15.726Z,73.16
2018-11-26T11:25:21.391Z,73.57
2018-11-26T11:27:26.391Z,73.64
2018-11-26T11:29:32.656Z,73.39
2018-11-26T11:31:37.493Z,73.57
2018-11-26T11:33:42.651Z,73.46
2018-11-26T11:35:47.682Z,73.86
2018-11-26T11:37:53.784Z,73.57
2018-11-26T11:39:58.851Z,73.10
2018-11-26T11:42:05.020Z,73.23
2018-11-26T11:44:10.290Z,73.19
2018-11-26T11:46:15.309Z,72.75
2018-11-26T11:48:20.511Z,72.25
2018-11-26T11:50:25.575Z,72.85
2018-11-26T11:52:30.886Z,73.57
2018-11-26T11:54:36.127Z,73.07
2018-11-26T11:56:41.371Z,73.42
2018-11-26T11:58:46.681Z,73.59
2018-11-26T12:00:51.985Z,73.54
2018-11-26T12:02:57.061Z,73.08
2018-11-26T12:05:02.249Z,73.64
2018-11-26T12:07:07.953Z,74.11
2018-11-26T12:09:12.886Z,74.27
2018-11-26T12:11:17.762Z,73.78
2018-11-26T12:13:25.353Z,73.96
2018-11-26T12:15:30.568Z,73.74
2018-11-26T12:17:35.562Z,73.91
2018-11-26T12:19:40.423Z,73.81
2018-11-26T12:21:45.625Z,73.90
2018-11-26T12:23:50.742Z,74.03
2018-11-26T12:25:55.988Z,74.55
2018-11-26T12:28:00.985Z,74.53
2018-11-26T12:30:10.243Z,74.69
2018-11-26T12:32:15.142Z,74.36
2018-11-26T12:34:20.285Z,74.70
2018-11-26T12:36:25.302Z,74.43
2018-11-26T12:38:30.521Z,74.44
2018-11-26T12:40:35.521Z,74.50
2018-11-26T12:42:40.642Z,74.35
2018-11-26T12:44:49.609Z,74.27
2018-11-26T12:46:54.878Z,74.03
2018-11-26T12:48:59.898Z,74.29
2018-11-26T12:51:05.177Z,74.08
2018-11-26T12:53:10.187Z,73.99
2018-11-26T12:55:16.336Z,73.86
2018-11-26T12:57:21.304Z,73.76
2018-11-26T12:59:26.306Z,73.81
2018-11-26T13:01:31.525Z,73.13
2018-11-26T13:03:36.414Z,73.27
2018-11-26T13:05:41.531Z,73.42
2018-11-26T13:07:46.999Z,73.45
2018-11-26T13:09:51.902Z,73.01
2018-11-26T13:11:56.756Z,72.56
2018-11-26T13:14:01.789Z,72.36
2018-11-26T13:16:07.437Z,72.36
2018-11-26T13:18:12.209Z,72.27
2018-11-26T13:20:21.799Z,72.36
2018-11-26T13:22:27.391Z,72.42
2018-11-26T13:24:32.444Z,72.84
2018-11-26T13:26:37.268Z,72.20
2018-11-26T13:28:42.127Z,72.66
2018-11-26T13:30:49.660Z,72.11
2018-11-26T13:32:56.564Z,71.81
2018-11-26T13:35:01.458Z,72.22
2018-11-26T13:37:06.664Z,72.15
2018-11-26T13:39:11.551Z,72.49
2018-11-26T13:41:16.441Z,72.48
2018-11-26T13:43:21.747Z,72.83
2018-11-26T13:45:35.183Z,72.95
2018-11-26T13:47:40.764Z,73.47
2018-11-26T13:49:45.847Z,73.35
2018-11-26T13:51:50.968Z,73.11
2018-11-26T13:53:56.224Z,72.99
2018-11-26T13:56:01.304Z,73.08
2018-11-26T13:58:07.363Z,73.04
2018-11-26T14:00:14.808Z,72.84
2018-11-26T14:02:21.403Z,72.90
2018-11-26T14:04:26.272Z,73.06
2018-11-26T14:06:31.291Z,72.57
2018-11-26T14:08:36.032Z,72.94
2018-11-26T14:10:41.338Z,72.29
2018-11-26T14:12:47.186Z,72.80
2018-11-26T14:14:52.120Z,72.77
2018-11-26T14:16:57.418Z,72.86
2018-11-26T14:19:02.482Z,72.73
2018-11-26T14:21:07.472Z,72.20
2018-11-26T14:23:12.937Z,72.20
2018-11-26T14:25:18.944Z,72.16
2018-11-26T14:27:24.002Z,72.53
2018-11-26T14:29:29.032Z,72.08
2018-11-26T14:31:33.889Z,71.98
2018-11-26T14:33:38.656Z,72.31
2018-11-26T14:35:43.683Z,72.51
2018-11-26T14:37:50.721Z,72.71
2018-11-26T14:39:57.691Z,72.50
2018-11-26T14:42:02.708Z,72.16
2018-11-26T14:44:08.089Z,72.29
2018-11-26T14:46:12.942Z,72.60
2018-11-26T14:48:17.855Z,72.52
2018-11-26T14:50:22.864Z,72.58
2018-11-26T14:52:27.927Z,72.34
2018-11-26T14:54:33.081Z,72.84
2018-11-26T14:56:38.788Z,72.60
2018-11-26T14:58:43.585Z,72.30
2018-11-26T15:00:48.361Z,72.12
2018-11-26T15:02:53.247Z,72.37
2018-11-26T15:04:58.177Z,72.22
2018-11-26T15:07:03.211Z,72.30
2018-11-26T15:09:09.914Z,72.28
2018-11-26T15:11:15.118Z,72.47
2018-11-26T15:13:20.099Z,72.25
2018-11-26T15:15:26.560Z,72.29
2018-11-26T15:17:31.532Z,72.22
2018-11-26T15:19:36.915Z,72.15
2018-11-26T15:21:42.264Z,71.67
2018-11-26T15:23:47.414Z,71.93
2018-11-26T15:25:52.803Z,72.37
2018-11-26T15:28:01.285Z,72.41
2018-11-26T15:30:10.604Z,73.05
2018-11-26T15:32:15.559Z,73.09
2018-11-26T15:34:20.737Z,73.01
2018-11-26T15:36:25.636Z,73.11
2018-11-26T15:38:30.642Z,73.17
2018-11-26T15:40:35.859Z,72.98
2018-11-26T15:42:40.717Z,73.08
2018-11-26T15:44:45.711Z,73.36
2018-11-26T15:46:50.774Z,73.59
2018-11-26T15:48:55.809Z,73.36
2018-11-26T15:51:00.731Z,74.05
2018-11-26T15:53:06.036Z,74.05
2018-11-26T15:55:14.865Z,74.11
2018-11-26T15:57:19.950Z,74.33
2018-11-26T15:59:25.359Z,74.28
2018-11-26T16:01:30.222Z,74.05
2018-11-26T16:03:35.084Z,74.46
2018-11-26T16:05:39.949Z,74.32
2018-11-26T16:07:45.114Z,74.00
2018-11-26T16:09:50.141Z,74.43
2018-11-26T16:11:54.966Z,74.24
2018-11-26T16:13:59.989Z,73.91
2018-11-26T16:16:05.231Z,73.99
2018-11-26T16:18:15.717Z,74.06
2018-11-26T16:20:24.047Z,74.12
2018-11-26T16:22:28.922Z,74.31
2018-11-26T16:24:33.699Z,74.43
2018-11-26T16:26:38.595Z,74.04
2018-11-26T16:28:43.503Z,74.10
2018-11-26T16:30:48.563Z,74.58
2018-11-26T16:32:58.293Z,74.36
2018-11-26T16:35:04.208Z,74.82
2018-11-26T16:37:09.239Z,75.01
2018-11-26T16:39:14.148Z,74.42
2018-11-26T16:41:19.310Z,74.55
2018-11-26T16:43:24.335Z,75.18
2018-11-26T16:45:30.074Z,74.86
2018-11-26T16:47:35.089Z,75.39
2018-11-26T16:49:40.147Z,75.16
2018-11-26T16:51:45.326Z,75.47
2018-11-26T16:53:50.387Z,75.44
2018-11-26T16:55:55.588Z,75.44
2018-11-26T16:58:00.607Z,75.16
2018-11-26T17:00:09.414Z,75.45
2018-11-26T17:02:14.646Z,75.54
2018-11-26T17:04:19.943Z,75.78
2018-11-26T17:06:25.243Z,75.78
2018-11-26T17:08:30.385Z,76.01
2018-11-26T17:10:35.406Z,75.98
2018-11-26T17:12:40.874Z,75.95
2018-11-26T17:14:45.791Z,76.01
2018-11-26T17:16:51.052Z,75.80
2018-11-26T17:18:56.357Z,75.84
2018-11-26T17:21:01.694Z,75.69
2018-11-26T17:23:07.228Z,75.96
2018-11-26T17:25:19.516Z,75.95
2018-11-26T17:27:25.878Z,75.47
2018-11-26T17:29:30.858Z,75.96
2018-11-26T17:31:35.896Z,76.04
2018-11-26T17:33:41.720Z,76.04
2018-11-26T17:35:47.288Z,76.18
2018-11-26T17:37:52.546Z,76.38
2018-11-26T17:39:57.718Z,76.34
2018-11-26T17:42:02.822Z,76.41
2018-11-26T17:44:07.877Z,76.38
2018-11-26T17:46:13.361Z,76.47
2018-11-26T17:48:18.465Z,76.10
2018-11-26T17:50:31.861Z,76.02
2018-11-26T17:52:36.951Z,75.90
2018-11-26T17:54:41.925Z,75.72
2018-11-26T17:56:47.041Z,75.62
2018-11-26T17:58:52.017Z,75.51
2018-11-26T18:01:07.825Z,75.69
2018-11-26T18:03:13.202Z,75.96
2018-11-26T18:05:26.053Z,76.16
2018-11-26T18:07:31.638Z,76.42
2018-11-26T18:09:38.047Z,76.16
2018-11-26T18:11:43.131Z,76.24
2018-11-26T18:13:48.303Z,76.36
2018-11-26T18:15:54.206Z,76.20
2018-11-26T18:17:59.651Z,76.19
2018-11-26T18:20:06.563Z,76.29
2018-11-26T18:22:11.751Z,75.98
2018-11-26T18:24:16.772Z,75.89
2018-11-26T18:26:22.081Z,76.13
2018-11-26T18:28:28.161Z,75.72
2018-11-26T18:30:43.165Z,75.45
2018-11-26T18:32:49.823Z,75.86
2018-11-26T18:34:55.021Z,75.66
2018-11-26T18:37:00.543Z,76.23
2018-11-26T18:39:09.463Z,76.22
2018-11-26T18:41:14.564Z,75.77
2018-11-26T18:43:19.825Z,75.77
2018-11-26T18:45:25.093Z,75.89
2018-11-26T18:47:30.290Z,75.81
2018-11-26T18:49:35.580Z,75.52
2018-11-26T18:51:41.921Z,75.47
2018-11-26T18:53:46.977Z,75.65
2018-11-26T18:55:52.287Z,75.29
2018-11-26T18:57:58.483Z,75.56
2018-11-26T19:00:04.120Z,75.42
2018-11-26T19:02:09.405Z,75.90
2018-11-26T19:04:15.643Z,75.88
2018-11-26T19:06:20.884Z,75.51
2018-11-26T19:08:26.211Z,75.47
2018-11-26T19:10:35.089Z,75.62
2018-11-26T19:12:40.435Z,75.35
2018-11-26T19:14:46.569Z,75.06
2018-11-26T19:16:52.751Z,74.99
2018-11-26T19:18:57.990Z,75.21
2018-11-26T19:21:04.202Z,75.08
2018-11-26T19:23:09.263Z,75.06
2018-11-26T19:25:17.178Z,75.28
2018-11-26T19:27:22.532Z,74.79
2018-11-26T19:29:28.126Z,75.16
2018-11-26T19:31:33.715Z,75.40
2018-11-26T19:33:39.586Z,75.22
2018-11-26T19:35:44.949Z,75.49
2018-11-26T19:37:50.240Z,75.42
2018-11-26T19:39:56.092Z,75.64
2018-11-26T19:42:03.846Z,75.52
2018-11-26T19:44:10.385Z,75.18
2018-11-26T19:46:15.711Z,75.33
2018-11-26T19:48:24.802Z,75.79
2018-11-26T19:50:30.482Z,75.59
2018-11-26T19:52:35.723Z,75.38
2018-11-26T19:55:09.041Z,75.41
2018-11-26T19:57:22.866Z,75.76
2018-11-26T19:59:30.805Z,75.59
2018-11-26T20:01:44.398Z,75.85
2018-11-26T20:04:04.498Z,75.98
2018-11-26T20:06:17.215Z,75.54
2018-11-26T20:08:22.585Z,75.72
2018-11-26T20:10:45.753Z,75.74
2018-11-26T20:13:05.820Z,75.36
2018-11-26T20:15:24.498Z,75.60
2018-11-26T20:18:05.577Z,75.71
2018-11-26T20:20:46.213Z,76.17
2018-11-26T20:23:23.306Z,75.95
2018-11-26T20:26:00.154Z,76.35
2018-11-26T20:28:48.411Z,76.10
2018-11-26T20:31:24.879Z,76.25
2018-11-26T20:33:35.074Z,76.24
2018-11-26T20:35:45.036Z,76.25
2018-11-26T20:38:14.570Z,76.60
2018-11-26T20:40:35.184Z,76.39
2018-11-26T20:43:00.608Z,76.31
2018-11-26T20:45:38.477Z,76.49
2018-11-26T20:48:22.531Z,76.97
2018-11-26T20:50:34.919Z,76.69
2018-11-26T20:53:05.511Z,76.58
2018-11-26T20:55:27.826Z,76.64
2018-11-26T20:58:09.050Z,76.60
2018-11-26T21:00:35.428Z,76.55
2018-11-26T21:03:10.128Z,76.43
2018-11-26T21:05:50.895Z,76.50
2018-11-26T21:08:30.501Z,76.28
2018-11-26T21:10:52.104Z,76.45
2018-11-26T21:16:01.747Z,76.39
2018-11-26T21:18:44.859Z,76.54
2018-11-26T21:21:17.063Z,76.31
2018-11-26T21:26:29.861Z,76.14
2018-11-26T21:42:45.428Z,76.30
2018-11-26T22:01:08.140Z,76.55
2018-11-26T22:03:44.394Z,76.26
2018-11-26T22:05:57.010Z,76.46
2018-11-26T22:08:20.623Z,76.24
2018-11-26T22:10:49.310Z,76.37
2018-11-26T22:13:22.099Z,76.46
2018-11-26T22:16:13.470Z,76.11
2018-11-26T22:18:31.998Z,76.34
2018-11-26T22:23:51.326Z,76.29
2018-11-26T22:26:12.121Z,76.09
2018-11-26T22:28:52.176Z,76.55
2018-11-26T22:31:16.484Z,76.41
2018-11-26T22:33:21.692Z,76.11
2018-11-26T22:35:26.684Z,76.35
2018-11-26T22:37:33.644Z,76.60
2018-11-26T22:39:51.543Z,76.55
2018-11-26T22:42:10.124Z,76.25
2018-11-26T22:44:45.757Z,76.07
2018-11-26T22:47:20.405Z,76.31
2018-11-26T22:49:31.593Z,76.27
2018-11-26T22:51:51.562Z,76.15
2018-11-26T22:54:17.013Z,76.28
2018-11-26T22:56:54.290Z,76.21
2018-11-26T22:59:36.410Z,76.32
2018-11-26T23:04:57.715Z,76.04
2018-11-26T23:20:29.423Z,75.78
2018-11-26T23:23:00.698Z,75.76
2018-11-26T23:27:56.763Z,75.59
2018-11-26T23:30:33.459Z,75.74
2018-11-26T23:32:53.945Z,75.62
2018-11-26T23:35:22.684Z,75.51
2018-11-26T23:37:48.114Z,75.49
2018-11-26T23:40:12.252Z,75.28
2018-11-26T23:42:45.441Z,75.31
2018-11-26T23:45:18.817Z,75.04
2018-11-26T23:47:54.966Z,75.42
2018-11-26T23:50:06.011Z,75.49
2018-11-26T23:52:23.293Z,75.61
2018-11-26T23:54:35.567Z,75.62
2018-11-26T23:56:57.455Z,75.67
2018-11-26T23:59:23.016Z,75.48
